Time;durP1;ratioP1;P1;durP2;ratioP2;P2;SDS_P1;SDS_P2;PMS_P1;PMS_P2;Temp;Humidity;BMP_temperature;BMP_pressure;BME280_temperature;BME280_humidity;BME280_pressure;Samples;Min_cycle;Max_cycle;Signal;HPM_P1;HPM_P2
2021/01/31 00:00:27;;;;;;;58.70;30.13;;;2.90;86.20;;;;;;5098296;28;20040;-40
2021/01/31 00:02:53;;;;;;;59.78;30.00;;;2.80;86.20;;;;;;5098393;28;20046;-41
2021/01/31 00:05:21;;;;;;;57.90;28.63;;;2.80;86.20;;;;;;5098092;28;20421;-40
2021/01/31 00:07:47;;;;;;;63.92;30.05;;;2.80;86.30;;;;;;5098231;28;20032;-39
2021/01/31 00:10:15;;;;;;;59.92;29.75;;;2.80;86.40;;;;;;5098018;28;20032;-40
2021/01/31 00:12:41;;;;;;;58.30;28.35;;;2.80;86.50;;;;;;5098376;28;20111;-40
2021/01/31 00:15:12;;;;;;;51.65;28.45;;;2.80;86.60;;;;;;5098126;28;20408;-40
2021/01/31 00:17:38;;;;;;;61.33;28.80;;;2.70;86.60;;;;;;5097912;28;20337;-40
2021/01/31 00:20:05;;;;;;;59.08;26.85;;;2.70;86.60;;;;;;5097770;28;20043;-40
2021/01/31 00:22:30;;;;;;;53.42;25.67;;;2.70;86.70;;;;;;5097944;28;20468;-40
2021/01/31 00:24:56;;;;;;;58.15;28.45;;;2.70;86.60;;;;;;5097813;28;20116;-40
2021/01/31 00:27:25;;;;;;;55.35;25.80;;;2.70;86.70;;;;;;5097534;28;20031;-40
2021/01/31 00:29:54;;;;;;;57.60;27.45;;;2.70;86.80;;;;;;5097650;28;20024;-39
2021/01/31 00:32:28;;;;;;;58.25;27.95;;;2.70;86.90;;;;;;5098214;28;20020;-41
2021/01/31 00:34:56;;;;;;;57.60;29.08;;;2.70;86.90;;;;;;5097612;28;20039;-40
2021/01/31 00:37:22;;;;;;;63.90;31.85;;;2.70;87.00;;;;;;5097788;28;20016;-40
2021/01/31 00:39:50;;;;;;;60.80;29.63;;;2.70;87.30;;;;;;5097475;28;20135;-40
2021/01/31 00:42:18;;;;;;;60.72;29.70;;;2.70;87.60;;;;;;5097157;28;20044;-40
2021/01/31 00:44:51;;;;;;;63.67;31.45;;;2.70;87.70;;;;;;5097404;28;20035;-40
2021/01/31 00:47:20;;;;;;;71.55;30.58;;;2.80;87.80;;;;;;5097466;28;20024;-40
2021/01/31 00:49:47;;;;;;;66.10;29.55;;;2.80;87.80;;;;;;5097267;28;20035;-40
2021/01/31 00:52:13;;;;;;;63.05;32.15;;;2.90;87.70;;;;;;5097712;28;20046;-40
2021/01/31 00:54:39;;;;;;;66.60;32.70;;;2.90;87.80;;;;;;5097246;28;20031;-40
2021/01/31 00:57:06;;;;;;;62.95;30.10;;;3.00;87.80;;;;;;5097141;28;20035;-40
2021/01/31 00:59:31;;;;;;;56.72;29.52;;;3.00;87.80;;;;;;5097554;28;20418;-40
2021/01/31 01:01:58;;;;;;;60.40;30.13;;;3.10;87.90;;;;;;5096483;28;20028;-41
2021/01/31 01:04:24;;;;;;;55.50;29.25;;;3.10;87.70;;;;;;5097272;28;20034;-40
2021/01/31 01:06:49;;;;;;;61.88;30.38;;;3.10;87.70;;;;;;5097141;28;20114;-41
2021/01/31 01:09:15;;;;;;;56.67;31.23;;;3.10;87.60;;;;;;5096929;28;20441;-40
2021/01/31 01:11:43;;;;;;;66.30;32.25;;;3.20;87.60;;;;;;5096631;28;20028;-41
2021/01/31 01:14:09;;;;;;;55.90;27.92;;;3.30;87.60;;;;;;5097107;28;20047;-40
2021/01/31 01:16:35;;;;;;;50.75;27.50;;;3.30;87.40;;;;;;5096543;28;20039;-40
2021/01/31 01:19:03;;;;;;;55.65;28.95;;;3.30;87.10;;;;;;5095893;28;20078;-40
2021/01/31 01:21:29;;;;;;;59.60;31.55;;;3.40;87.10;;;;;;5096349;28;20045;-41
2021/01/31 01:23:55;;;;;;;55.70;27.33;;;3.40;87.00;;;;;;5097214;28;20057;-41
2021/01/31 01:26:21;;;;;;;57.10;30.10;;;3.40;87.00;;;;;;5096672;28;20036;-41
2021/01/31 01:28:47;;;;;;;52.60;28.67;;;3.40;86.90;;;;;;5097072;28;20032;-42
2021/01/31 01:31:12;;;;;;;49.22;27.25;;;3.50;86.90;;;;;;5096599;28;20398;-40
2021/01/31 01:33:38;;;;;;;52.50;28.73;;;3.50;86.80;;;;;;5096825;28;20558;-41
2021/01/31 01:36:04;;;;;;;51.58;26.85;;;3.50;86.70;;;;;;5096407;28;20031;-40
2021/01/31 01:38:29;;;;;;;55.67;29.40;;;3.50;86.70;;;;;;5096810;28;20059;-41
2021/01/31 01:40:56;;;;;;;51.58;27.60;;;3.50;86.60;;;;;;5096335;28;20028;-40
2021/01/31 01:43:22;;;;;;;48.30;27.52;;;3.50;86.50;;;;;;5096859;28;20027;-41
2021/01/31 01:46:12;;;;;;;46.55;25.35;;;3.60;86.50;;;;;;5096518;28;20024;-40
2021/01/31 01:48:38;;;;;;;50.75;27.25;;;3.60;86.30;;;;;;5096541;28;20028;-40
2021/01/31 01:51:03;;;;;;;45.75;26.17;;;3.60;86.30;;;;;;5096146;28;20444;-40
2021/01/31 01:53:29;;;;;;;50.17;26.27;;;3.60;86.40;;;;;;5096950;28;20220;-41
2021/01/31 01:56:08;;;;;;;44.05;24.90;;;3.60;86.40;;;;;;5096068;28;20117;-40
2021/01/31 01:58:34;;;;;;;42.97;22.75;;;3.60;86.20;;;;;;5096233;28;20031;-40
2021/01/31 02:01:01;;;;;;;42.05;23.35;;;3.60;85.90;;;;;;5095870;28;20035;-40
2021/01/31 02:03:32;;;;;;;42.47;23.23;;;3.60;85.90;;;;;;5095904;28;20027;-41
2021/01/31 02:06:13;;;;;;;43.67;25.08;;;3.60;86.10;;;;;;5095342;28;20035;-40
2021/01/31 02:08:42;;;;;;;42.35;22.42;;;3.60;86.40;;;;;;5096556;28;20028;-40
2021/01/31 02:11:09;;;;;;;37.80;22.38;;;3.60;86.30;;;;;;5095986;28;20429;-40
2021/01/31 02:13:39;;;;;;;34.78;19.52;;;3.60;86.40;;;;;;5096507;28;20546;-40
2021/01/31 02:16:12;;;;;;;36.25;21.88;;;3.60;86.40;;;;;;5095448;28;20481;-40
2021/01/31 02:18:54;;;;;;;38.40;20.77;;;3.70;86.30;;;;;;5095419;28;20044;-40
2021/01/31 02:21:47;;;;;;;30.67;18.60;;;3.70;86.10;;;;;;5096238;28;20055;-40
2021/01/31 02:24:50;;;;;;;34.95;18.85;;;3.70;85.90;;;;;;5096401;28;20024;-40
2021/01/31 02:27:54;;;;;;;29.30;16.92;;;3.70;86.00;;;;;;5096054;28;20027;-40
2021/01/31 02:30:25;;;;;;;26.80;16.75;;;3.70;86.20;;;;;;5073090;28;20028;-40
2021/01/31 02:33:06;;;;;;;;;;;3.60;86.00;;;;;;5073030;28;20020;-41
2021/01/31 02:35:35;;;;;;;27.50;16.02;;;3.60;86.10;;;;;;5086320;28;19912;-40
2021/01/31 02:38:10;;;;;;;30.77;18.42;;;3.60;86.10;;;;;;5096125;28;20027;-40
2021/01/31 02:40:58;;;;;;;28.67;16.73;;;3.60;86.00;;;;;;5095361;28;20040;-40
2021/01/31 02:43:37;;;;;;;28.52;18.00;;;3.60;86.10;;;;;;5096109;28;20337;-40
2021/01/31 02:46:23;;;;;;;29.23;16.75;;;3.60;86.20;;;;;;5095479;28;20028;-40
2021/01/31 02:49:11;;;;;;;31.23;17.55;;;3.60;86.30;;;;;;5095748;28;20028;-40
2021/01/31 02:51:59;;;;;;;21.65;13.98;;;3.60;86.00;;;;;;5095169;28;20024;-40
2021/01/31 02:54:34;;;;;;;19.95;13.85;;;3.60;85.70;;;;;;5095348;28;20123;-40
2021/01/31 02:57:05;;;;;;;21.85;13.93;;;3.50;85.50;;;;;;5095249;28;20016;-40
2021/01/31 03:00:00;;;;;;;19.42;13.55;;;3.50;85.30;;;;;;5095634;28;20040;-40
2021/01/31 03:02:31;;;;;;;19.70;13.25;;;3.50;85.10;;;;;;5093837;28;20027;-40
2021/01/31 03:05:18;;;;;;;21.63;14.57;;;3.40;85.20;;;;;;5095261;28;20032;-40
2021/01/31 03:08:10;;;;;;;24.20;15.95;;;3.40;85.20;;;;;;5095516;28;20077;-40
2021/01/31 03:10:57;;;;;;;28.05;17.85;;;3.40;85.40;;;;;;5095364;28;20032;-40
2021/01/31 03:13:54;;;;;;;26.08;16.58;;;3.30;84.90;;;;;;5095819;28;20016;-40
2021/01/31 03:16:23;;;;;;;28.15;17.67;;;3.30;84.90;;;;;;5091517;28;20032;-40
2021/01/31 03:18:59;;;;;;;30.45;18.80;;;3.20;85.00;;;;;;5098133;28;20048;-40
2021/01/31 03:21:28;;;;;;;38.08;22.52;;;3.10;84.10;;;;;;5099452;28;20069;-40
2021/01/31 03:24:14;;;;;;;36.70;20.80;;;3.00;84.00;;;;;;5099273;28;20038;-40
2021/01/31 03:26:55;;;;;;;36.03;20.83;;;2.90;83.50;;;;;;5098990;28;20449;-40
2021/01/31 03:29:21;;;;;;;40.38;20.40;;;2.80;82.50;;;;;;5099120;28;20036;-40
2021/01/31 03:31:55;;;;;;;38.97;21.83;;;2.70;81.80;;;;;;5098642;28;20044;-40
2021/01/31 03:34:27;;;;;;;36.03;21.00;;;2.50;81.50;;;;;;5099027;28;20086;-41
2021/01/31 03:36:58;;;;;;;38.90;21.55;;;2.40;81.50;;;;;;5098947;28;20077;-40
2021/01/31 03:39:24;;;;;;;;;;;2.20;81.50;;;;;;5099030;28;20047;-40
2021/01/31 03:41:50;;;;;;;35.28;20.15;;;2.10;82.00;;;;;;5098705;28;19908;-41
2021/01/31 03:44:15;;;;;;;35.40;19.75;;;2.00;82.00;;;;;;5099135;28;20020;-40
2021/01/31 03:47:07;;;;;;;36.42;21.45;;;1.90;81.80;;;;;;5098082;28;20024;-41
2021/01/31 03:50:05;;;;;;;37.42;20.88;;;1.80;81.90;;;;;;5098769;28;20081;-40
2021/01/31 03:52:32;;;;;;;33.88;20.15;;;1.70;81.70;;;;;;5086569;28;20521;-40
2021/01/31 03:54:58;;;;;;;36.72;20.95;;;1.60;81.60;;;;;;5098328;28;20424;-39
2021/01/31 03:57:53;;;;;;;33.47;20.40;;;1.60;82.00;;;;;;5098576;28;20031;-40
2021/01/31 04:00:24;;;;;;;34.55;19.27;;;1.50;82.00;;;;;;5095179;28;20406;-39
2021/01/31 04:02:58;;;;;;;;;;;1.50;81.90;;;;;;5098963;28;20026;-39
2021/01/31 04:05:27;;;;;;;34.95;20.63;;;1.40;81.60;;;;;;5098149;28;19908;-40
2021/01/31 04:07:56;;;;;;;35.13;21.10;;;1.30;81.50;;;;;;5098320;28;20429;-40
2021/01/31 04:10:22;;;;;;;33.90;19.92;;;1.20;81.40;;;;;;5097967;28;20425;-39
2021/01/31 04:12:52;;;;;;;35.88;20.90;;;1.20;81.20;;;;;;5098149;28;20020;-40
2021/01/31 04:15:36;;;;;;;35.80;20.17;;;1.10;80.90;;;;;;5098088;28;20031;-39
2021/01/31 04:18:02;;;;;;;32.45;19.75;;;1.10;80.40;;;;;;5097896;28;20138;-39
2021/01/31 04:20:28;;;;;;;33.03;21.25;;;1.00;80.20;;;;;;5098027;28;20413;-39
2021/01/31 04:22:54;;;;;;;38.47;23.20;;;0.90;80.70;;;;;;5098082;28;20082;-41
2021/01/31 04:25:19;;;;;;;40.63;21.88;;;0.90;81.20;;;;;;5097725;28;20119;-39
2021/01/31 04:27:45;;;;;;;39.20;22.33;;;0.90;81.50;;;;;;5098022;28;20028;-40
2021/01/31 04:30:12;;;;;;;36.92;22.60;;;0.80;81.40;;;;;;5097586;28;20040;-39
2021/01/31 04:32:37;;;;;;;41.00;22.40;;;0.80;81.20;;;;;;5097411;28;20030;-40
2021/01/31 04:35:06;;;;;;;43.30;24.10;;;0.80;81.20;;;;;;5097727;28;20036;-39
2021/01/31 04:37:31;;;;;;;40.85;23.90;;;0.80;80.70;;;;;;5097486;28;20016;-39
2021/01/31 04:39:57;;;;;;;38.45;22.10;;;0.80;80.40;;;;;;5097376;28;20081;-39
2021/01/31 04:42:23;;;;;;;39.55;22.63;;;0.70;80.00;;;;;;5097456;28;20016;-40
2021/01/31 04:44:50;;;;;;;35.88;22.23;;;0.60;80.00;;;;;;5097225;28;20385;-39
2021/01/31 04:47:37;;;;;;;36.45;21.17;;;0.60;80.10;;;;;;5097309;28;20418;-39
2021/01/31 04:50:20;;;;;;;32.78;19.92;;;0.60;80.20;;;;;;5097364;28;20020;-40
2021/01/31 04:52:58;;;;;;;35.00;21.08;;;0.50;80.10;;;;;;5096992;28;20500;-40
2021/01/31 04:55:33;;;;;;;35.35;21.05;;;0.50;80.30;;;;;;5096970;28;20029;-39
2021/01/31 04:58:17;;;;;;;31.63;20.13;;;0.50;80.80;;;;;;5097266;28;20094;-39
2021/01/31 05:01:27;;;;;;;34.67;19.67;;;0.50;80.60;;;;;;5096783;28;20063;-39
2021/01/31 05:04:08;;;;;;;28.25;16.55;;;0.40;80.20;;;;;;5097914;28;20376;-39
2021/01/31 05:06:51;;;;;;;28.00;16.85;;;0.40;80.20;;;;;;5096625;28;20036;-39
2021/01/31 05:09:20;;;;;;;27.15;16.25;;;0.30;79.70;;;;;;5097442;28;20307;-39
2021/01/31 05:12:01;;;;;;;27.63;16.60;;;0.30;79.60;;;;;;5096676;28;20031;-39
2021/01/31 05:14:50;;;;;;;26.30;15.27;;;0.30;79.80;;;;;;5096955;28;20363;-39
2021/01/31 05:17:18;;;;;;;28.13;15.57;;;0.20;80.20;;;;;;5097255;28;20085;-39
2021/01/31 05:19:43;;;;;;;24.38;15.27;;;0.20;80.00;;;;;;5096245;28;20056;-39
2021/01/31 05:22:17;;;;;;;23.38;14.70;;;0.20;79.80;;;;;;5096791;28;20066;-40
2021/01/31 05:24:44;;;;;;;26.48;15.02;;;0.20;79.40;;;;;;5096531;28;20029;-39
2021/01/31 05:27:10;;;;;;;21.38;14.13;;;0.20;79.40;;;;;;5096659;28;20020;-40
2021/01/31 05:29:39;;;;;;;22.27;14.10;;;0.10;79.30;;;;;;5096153;28;20031;-39
2021/01/31 05:32:08;;;;;;;21.35;13.02;;;0.10;79.60;;;;;;5096517;28;20109;-39
2021/01/31 05:34:41;;;;;;;22.45;13.85;;;0.10;79.30;;;;;;5096831;28;20039;-39
2021/01/31 05:37:15;;;;;;;19.55;13.07;;;0.00;79.40;;;;;;5096295;28;20055;-39
2021/01/31 05:39:43;;;;;;;21.00;13.00;;;0.10;79.70;;;;;;5095785;28;20079;-40
2021/01/31 05:42:30;;;;;;;19.83;12.93;;;0.10;79.50;;;;;;5095710;28;20027;-40
2021/01/31 05:45:07;;;;;;;19.33;12.18;;;0.10;79.30;;;;;;5096124;28;20128;-39
2021/01/31 05:47:38;;;;;;;19.17;11.80;;;0.00;79.30;;;;;;5096665;28;20446;-39
2021/01/31 05:50:37;;;;;;;19.80;11.40;;;0.00;79.10;;;;;;5096343;28;20450;-39
2021/01/31 05:53:32;;;;;;;19.35;11.48;;;0.00;79.00;;;;;;5096027;28;20024;-39
2021/01/31 05:56:38;;;;;;;16.63;10.70;;;0.00;79.40;;;;;;5096201;28;20032;-39
2021/01/31 05:59:07;;;;;;;17.30;10.25;;;0.00;79.40;;;;;;5085284;28;20159;-39
2021/01/31 06:01:33;;;;;;;15.68;10.55;;;0.10;79.80;;;;;;5095691;28;20062;-41
2021/01/31 06:04:15;;;;;;;19.58;10.90;;;0.10;79.50;;;;;;5096655;28;20047;-40
2021/01/31 06:06:42;;;;;;;17.77;10.70;;;0.10;79.80;;;;;;5095619;28;20111;-39
2021/01/31 06:09:55;;;;;;;15.45;9.57;;;0.10;79.80;;;;;;5096350;28;20335;-39
2021/01/31 06:12:20;;;;;;;16.80;10.30;;;0.20;79.90;;;;;;5091358;28;20124;-39
2021/01/31 06:15:09;;;;;;;14.82;9.70;;;0.20;79.90;;;;;;5096044;28;20077;-39
2021/01/31 06:17:36;;;;;;;16.75;10.15;;;0.20;79.80;;;;;;5090141;28;20039;-39
2021/01/31 06:20:16;;;;;;;14.75;9.65;;;0.30;79.80;;;;;;5095918;28;20342;-40
2021/01/31 06:22:47;;;;;;;14.00;9.38;;;0.30;79.90;;;;;;5095881;28;20036;-39
2021/01/31 06:25:16;;;;;;;15.10;9.45;;;0.30;80.10;;;;;;5094814;28;20483;-39
2021/01/31 06:27:43;;;;;;;16.63;10.50;;;0.30;79.80;;;;;;5095347;28;20038;-39
2021/01/31 06:30:14;;;;;;;15.10;9.50;;;0.40;79.70;;;;;;5095240;28;20060;-39
2021/01/31 06:32:40;;;;;;;17.60;10.75;;;0.40;79.30;;;;;;5095850;28;20024;-40
2021/01/31 06:35:10;;;;;;;13.88;9.25;;;0.40;79.00;;;;;;5095608;28;20440;-39
2021/01/31 06:37:48;;;;;;;16.17;9.85;;;0.40;79.10;;;;;;5095248;28;20509;-39
2021/01/31 06:40:25;;;;;;;14.23;9.43;;;0.50;79.30;;;;;;5095713;28;20353;-39
2021/01/31 06:43:07;;;;;;;13.35;9.35;;;0.50;79.40;;;;;;5095624;28;20031;-39
2021/01/31 06:45:45;;;;;;;14.05;8.95;;;0.50;79.10;;;;;;5095505;28;20024;-39
2021/01/31 06:48:42;;;;;;;15.30;9.77;;;0.50;78.90;;;;;;5095853;28;20016;-39
2021/01/31 06:51:12;;;;;;;13.60;8.80;;;0.50;78.90;;;;;;5077975;28;20094;-40
2021/01/31 06:53:50;;;;;;;14.45;9.32;;;0.50;78.80;;;;;;5100139;28;20311;-39
2021/01/31 06:56:37;;;;;;;13.95;9.07;;;0.60;78.50;;;;;;5099537;28;20036;-39
2021/01/31 06:59:49;;;;;;;14.25;8.70;;;0.60;78.60;;;;;;5099141;28;20036;-39
2021/01/31 07:02:27;;;;;;;20.50;9.45;;;0.60;78.50;;;;;;5099086;28;20326;-40
2021/01/31 07:05:04;;;;;;;13.88;9.35;;;0.60;78.70;;;;;;5099634;28;20038;-39
2021/01/31 07:07:48;;;;;;;13.73;9.55;;;0.60;78.80;;;;;;5098952;28;20023;-39
2021/01/31 07:10:37;;;;;;;13.75;8.65;;;0.70;78.40;;;;;;5098097;28;20028;-39
2021/01/31 07:13:08;;;;;;;15.43;8.95;;;0.70;77.70;;;;;;5099506;28;20016;-39
2021/01/31 07:15:57;;;;;;;14.68;10.27;;;0.60;77.30;;;;;;5097080;28;20028;-39
2021/01/31 07:18:27;;;;;;;15.75;10.40;;;0.60;77.80;;;;;;5073442;28;20055;-39
2021/01/31 07:20:58;;;;;;;15.30;10.38;;;0.60;78.00;;;;;;5098444;28;20274;-43
2021/01/31 07:23:34;;;;;;;15.02;8.85;;;0.70;78.10;;;;;;5098731;28;20420;-43
2021/01/31 07:26:28;;;;;;;18.08;10.68;;;0.70;77.70;;;;;;5098325;28;20032;-43
2021/01/31 07:28:58;;;;;;;15.15;9.32;;;0.70;77.80;;;;;;5097109;28;20024;-43
2021/01/31 07:31:48;;;;;;;15.93;9.75;;;0.70;77.40;;;;;;5098063;28;20046;-42
2021/01/31 07:34:29;;;;;;;14.07;9.10;;;0.70;77.80;;;;;;5098586;28;20047;-42
2021/01/31 07:37:15;;;;;;;15.00;9.52;;;0.70;77.40;;;;;;5081445;28;20037;-42
2021/01/31 07:39:56;;;;;;;14.57;9.50;;;0.80;77.90;;;;;;5078541;28;20091;-43
2021/01/31 07:42:24;;;;;;;17.48;10.18;;;0.80;77.80;;;;;;5089819;28;20111;-43
2021/01/31 07:44:56;;;;;;;14.63;9.75;;;0.90;77.50;;;;;;5090124;28;20353;-43
2021/01/31 07:47:23;;;;;;;12.90;8.98;;;0.90;77.60;;;;;;5098079;28;20016;-43
2021/01/31 07:49:57;;;;;;;15.77;10.05;;;0.90;77.20;;;;;;5095832;28;20043;-43
2021/01/31 07:52:29;;;;;;;15.07;9.68;;;1.00;77.20;;;;;;5096791;28;20482;-43
2021/01/31 07:55:34;;;;;;;16.30;9.57;;;1.00;77.10;;;;;;5089666;28;20078;-43
2021/01/31 07:58:05;;;;;;;12.90;8.60;;;1.10;77.30;;;;;;5044732;28;20523;-42
2021/01/31 08:00:43;;;;;;;;;;;1.10;76.90;;;;;;5084930;28;20052;-42
2021/01/31 08:03:29;;;;;;;14.88;8.95;;;1.20;77.00;;;;;;5092742;28;20585;-43
2021/01/31 08:06:18;;;;;;;18.33;10.43;;;1.10;76.50;;;;;;5109146;28;20684;-43
2021/01/31 08:08:47;;;;;;;20.65;11.98;;;1.20;77.10;;;;;;5094532;28;20016;-42
2021/01/31 08:11:16;;;;;;;15.95;9.80;;;1.20;76.70;;;;;;5097630;28;20066;-42
2021/01/31 08:13:43;;;;;;;15.00;10.05;;;1.20;76.70;;;;;;5096709;28;20036;-43
2021/01/31 08:16:47;;;;;;;16.15;9.90;;;1.30;75.60;;;;;;5096983;28;20047;-43
2021/01/31 08:19:18;;;;;;;16.02;10.40;;;1.30;75.50;;;;;;5090659;28;20052;-43
2021/01/31 08:22:04;;;;;;;20.73;12.38;;;1.30;75.70;;;;;;5095708;28;20043;-42
2021/01/31 08:25:07;;;;;;;18.27;10.68;;;1.30;76.00;;;;;;5090784;28;20067;-44
2021/01/31 08:27:38;;;;;;;20.63;10.50;;;1.40;76.50;;;;;;5077154;28;20029;-43
2021/01/31 08:30:13;;;;;;;15.07;9.65;;;1.40;76.50;;;;;;5076542;28;20433;-43
2021/01/31 08:33:00;;;;;;;18.25;10.18;;;1.50;75.10;;;;;;5078018;28;20021;-43
2021/01/31 08:35:41;;;;;;;14.18;8.85;;;1.50;74.60;;;;;;5076712;28;20024;-43
2021/01/31 08:38:25;;;;;;;20.45;13.13;;;1.50;75.00;;;;;;5094712;28;20153;-43
2021/01/31 08:41:02;;;;;;;17.60;10.35;;;1.50;75.80;;;;;;5094446;28;20050;-43
2021/01/31 08:43:37;;;;;;;18.92;11.13;;;1.50;75.00;;;;;;5080599;28;20024;-43
2021/01/31 08:46:32;;;;;;;20.15;11.18;;;1.50;74.60;;;;;;5086419;28;20047;-43
2021/01/31 08:49:00;;;;;;;18.23;9.68;;;1.60;74.30;;;;;;5088703;28;20102;-43
2021/01/31 08:51:37;;;;;;;19.33;9.90;;;1.70;74.70;;;;;;5095239;28;20036;-43
2021/01/31 08:54:14;;;;;;;16.52;10.48;;;1.80;74.40;;;;;;5096511;28;20291;-43
2021/01/31 08:56:45;;;;;;;19.83;10.77;;;1.80;73.90;;;;;;5095403;28;20024;-43
2021/01/31 08:59:28;;;;;;;17.02;10.30;;;1.80;73.90;;;;;;5093835;28;20357;-43
2021/01/31 09:02:16;;;;;;;18.25;10.02;;;1.90;73.90;;;;;;5095142;28;20032;-44
2021/01/31 09:04:44;;;;;;;18.30;10.80;;;2.00;73.90;;;;;;5083865;28;20032;-43
2021/01/31 09:07:13;;;;;;;18.38;10.77;;;2.00;73.90;;;;;;5089412;28;20101;-44
2021/01/31 09:09:50;;;;;;;16.88;10.70;;;2.00;73.50;;;;;;5096654;28;20024;-43
2021/01/31 09:12:21;;;;;;;16.52;9.82;;;2.10;73.50;;;;;;5097031;28;20019;-43
2021/01/31 09:14:47;;;;;;;19.65;11.27;;;2.10;74.00;;;;;;5096057;28;20030;-43
2021/01/31 09:17:12;;;;;;;16.35;10.30;;;2.10;73.50;;;;;;5091031;28;20032;-43
2021/01/31 09:19:39;;;;;;;24.67;12.13;;;2.00;72.30;;;;;;5095846;28;20056;-42
2021/01/31 09:22:07;;;;;;;20.83;12.45;;;2.10;72.90;;;;;;5096421;28;20039;-43
2021/01/31 09:24:45;;;;;;;24.63;13.55;;;2.10;73.20;;;;;;5092849;28;20119;-43
2021/01/31 09:27:24;;;;;;;21.20;13.27;;;2.10;72.70;;;;;;5096402;28;20028;-43
2021/01/31 09:30:06;;;;;;;23.88;12.82;;;2.10;72.40;;;;;;5096551;28;20046;-43
2021/01/31 09:32:38;;;;;;;24.67;15.50;;;2.10;72.70;;;;;;5093742;28;20028;-44
2021/01/31 09:35:07;;;;;;;22.13;11.15;;;2.20;72.70;;;;;;5088914;28;20038;-44
2021/01/31 09:37:33;;;;;;;17.65;10.70;;;2.20;73.20;;;;;;5078042;28;20025;-43
2021/01/31 09:40:02;;;;;;;18.85;10.60;;;2.20;73.30;;;;;;5079428;28;20043;-43
2021/01/31 09:42:39;;;;;;;21.10;11.48;;;2.20;72.70;;;;;;5084919;28;20024;-40
2021/01/31 09:45:26;;;;;;;16.10;9.88;;;2.30;73.00;;;;;;5101112;28;20032;-44
2021/01/31 09:47:52;;;;;;;20.00;11.35;;;2.30;72.90;;;;;;5090735;28;20027;-44
2021/01/31 09:50:18;;;;;;;16.25;10.25;;;2.30;72.80;;;;;;5087457;28;20185;-39
2021/01/31 09:52:48;;;;;;;17.40;10.63;;;2.30;71.80;;;;;;5094138;28;20102;-41
2021/01/31 09:55:38;;;;;;;25.92;10.82;;;2.30;71.90;;;;;;5092858;28;20425;-39
2021/01/31 09:58:14;;;;;;;19.20;10.07;;;2.30;72.60;;;;;;5094823;28;20424;-39
2021/01/31 10:00:39;;;;;;;24.40;11.20;;;2.40;72.60;;;;;;5093768;28;20048;-39
2021/01/31 10:03:28;;;;;;;17.65;9.95;;;2.40;73.10;;;;;;5092470;28;20452;-41
2021/01/31 10:06:15;;;;;;;16.65;9.65;;;2.50;72.60;;;;;;5087944;28;20028;-39
2021/01/31 10:08:57;;;;;;;18.10;10.63;;;2.60;72.30;;;;;;5094583;28;20055;-40
2021/01/31 10:11:45;;;;;;;18.83;10.70;;;2.60;72.10;;;;;;5095466;28;20032;-40
2021/01/31 10:14:13;;;;;;;13.32;9.25;;;2.70;72.10;;;;;;5088945;28;20440;-39
2021/01/31 10:16:41;;;;;;;14.52;10.07;;;2.80;71.90;;;;;;5094894;28;20073;-40
2021/01/31 10:19:15;;;;;;;18.95;11.02;;;2.90;71.50;;;;;;5094477;28;20056;-40
2021/01/31 10:21:47;;;;;;;19.58;11.25;;;2.90;72.20;;;;;;5094725;28;20028;-40
2021/01/31 10:24:16;;;;;;;22.60;13.23;;;3.10;72.10;;;;;;5092178;28;20107;-40
2021/01/31 10:26:42;;;;;;;17.55;11.82;;;3.20;71.50;;;;;;5095122;28;20118;-41
2021/01/31 10:29:09;;;;;;;19.85;11.23;;;3.30;70.70;;;;;;5094436;28;20031;-39
2021/01/31 10:31:37;;;;;;;23.20;10.85;;;3.30;71.00;;;;;;5086596;28;20042;-40
2021/01/31 10:34:06;;;;;;;17.70;12.15;;;3.40;71.00;;;;;;5094249;28;20079;-40
2021/01/31 10:36:36;;;;;;;31.40;19.80;;;3.40;69.40;;;;;;5093722;28;20338;-40
2021/01/31 10:39:10;;;;;;;20.27;12.70;;;3.50;68.80;;;;;;5091645;28;20031;-40
2021/01/31 10:41:40;;;;;;;20.30;11.27;;;3.40;69.40;;;;;;5077868;28;20035;-40
2021/01/31 10:44:08;;;;;;;24.73;16.38;;;3.50;69.00;;;;;;5094353;28;20024;-40
2021/01/31 10:46:35;;;;;;;22.80;12.15;;;3.40;68.90;;;;;;5094228;28;20036;-40
2021/01/31 10:49:02;;;;;;;21.80;14.32;;;3.40;69.30;;;;;;5092268;28;20049;-40
2021/01/31 10:51:32;;;;;;;19.27;11.10;;;3.50;69.60;;;;;;5084983;28;20062;-40
2021/01/31 10:53:58;;;;;;;19.23;12.23;;;3.40;68.80;;;;;;5103903;28;20059;-43
2021/01/31 10:56:24;;;;;;;21.98;11.25;;;3.40;69.00;;;;;;5108824;28;20032;-44
2021/01/31 10:58:50;;;;;;;19.92;11.95;;;3.40;68.90;;;;;;5086318;28;20435;-47
2021/01/31 11:01:16;;;;;;;16.42;10.32;;;3.40;69.30;;;;;;5095177;28;20032;-44
2021/01/31 11:03:41;;;;;;;18.52;9.27;;;3.40;69.10;;;;;;5092692;28;20399;-44
2021/01/31 11:06:07;;;;;;;14.45;8.80;;;3.30;67.50;;;;;;5093604;28;20032;-44
2021/01/31 11:08:33;;;;;;;16.05;10.02;;;3.30;66.90;;;;;;5095191;28;20348;-44
2021/01/31 11:10:59;;;;;;;16.08;9.80;;;3.10;66.80;;;;;;5095125;28;20039;-45
2021/01/31 11:13:26;;;;;;;16.05;9.68;;;3.00;67.10;;;;;;5084176;28;20028;-44
2021/01/31 11:15:52;;;;;;;15.00;9.38;;;3.00;67.00;;;;;;5094508;28;20032;-45
2021/01/31 11:18:18;;;;;;;16.63;9.98;;;2.90;67.70;;;;;;5094474;28;20105;-44
2021/01/31 11:20:44;;;;;;;16.08;9.48;;;2.90;68.20;;;;;;5093855;28;20113;-43
2021/01/31 11:23:10;;;;;;;20.23;10.60;;;2.90;68.10;;;;;;5084859;28;20020;-44
2021/01/31 11:25:36;;;;;;;24.10;13.73;;;2.90;68.50;;;;;;5093816;28;20039;-45
2021/01/31 11:28:03;;;;;;;22.13;12.90;;;2.90;68.50;;;;;;5094495;28;20107;-45
2021/01/31 11:30:29;;;;;;;21.30;11.77;;;2.90;66.90;;;;;;5090789;28;20032;-46
2021/01/31 11:32:57;;;;;;;20.42;10.85;;;2.90;67.60;;;;;;5093309;28;20081;-45
2021/01/31 11:35:23;;;;;;;31.15;16.50;;;2.90;67.20;;;;;;5098046;28;20524;-44
2021/01/31 11:37:49;;;;;;;17.80;10.90;;;2.80;66.80;;;;;;5114758;28;20016;-45
2021/01/31 11:40:15;;;;;;;19.92;13.32;;;2.80;67.50;;;;;;5101003;28;20036;-44
2021/01/31 11:42:41;;;;;;;20.73;11.52;;;2.80;67.60;;;;;;5097709;28;20035;-47
2021/01/31 11:45:08;;;;;;;16.98;11.18;;;2.80;66.90;;;;;;5098082;28;20032;-45
2021/01/31 11:47:37;;;;;;;22.08;12.23;;;2.80;67.00;;;;;;5098049;28;20035;-44
2021/01/31 11:50:04;;;;;;;23.08;11.20;;;2.80;66.60;;;;;;5096957;28;20028;-44
2021/01/31 11:52:30;;;;;;;22.10;11.95;;;2.80;66.70;;;;;;5098251;28;20028;-43
2021/01/31 11:54:55;;;;;;;22.55;11.68;;;2.80;66.90;;;;;;5095250;28;20043;-45
2021/01/31 11:57:21;;;;;;;18.65;11.20;;;2.70;67.20;;;;;;5090419;28;20020;-44
2021/01/31 11:59:47;;;;;;;24.00;14.50;;;2.80;67.30;;;;;;5090123;28;20103;-45
2021/01/31 12:02:13;;;;;;;19.80;11.63;;;2.80;66.90;;;;;;5082742;28;20027;-48
2021/01/31 12:04:39;;;;;;;19.60;11.35;;;2.70;66.60;;;;;;5096824;28;20314;-44
2021/01/31 12:07:06;;;;;;;27.83;14.85;;;2.70;66.60;;;;;;5098065;28;20024;-42
2021/01/31 12:09:32;;;;;;;25.63;14.88;;;2.70;66.60;;;;;;5097650;28;20118;-40
2021/01/31 12:11:58;;;;;;;21.13;12.38;;;2.70;66.60;;;;;;5098412;28;20115;-42
2021/01/31 12:14:24;;;;;;;22.50;12.15;;;2.70;66.20;;;;;;5096258;28;20036;-41
2021/01/31 12:16:51;;;;;;;16.77;11.02;;;2.60;65.70;;;;;;5091619;28;20020;-44
2021/01/31 12:19:16;;;;;;;27.33;16.02;;;2.60;65.90;;;;;;5094162;28;20044;-44
2021/01/31 12:21:43;;;;;;;34.25;18.65;;;2.60;66.10;;;;;;5096333;28;20074;-44
2021/01/31 12:24:08;;;;;;;30.00;18.02;;;2.60;66.60;;;;;;5096677;28;20098;-46
2021/01/31 12:26:34;;;;;;;22.73;13.30;;;2.60;66.20;;;;;;5098496;28;20027;-47
2021/01/31 12:29:00;;;;;;;26.90;13.45;;;2.60;66.00;;;;;;5097983;28;20035;-40
2021/01/31 12:31:26;;;;;;;24.13;13.18;;;2.60;66.70;;;;;;5096653;28;20426;-43
2021/01/31 12:33:52;;;;;;;23.80;12.25;;;2.60;66.90;;;;;;5097807;28;20103;-44
2021/01/31 12:36:19;;;;;;;29.42;12.90;;;2.70;66.70;;;;;;5092366;28;20687;-44
2021/01/31 12:38:46;;;;;;;22.90;12.13;;;2.70;66.70;;;;;;5094066;28;20016;-41
2021/01/31 12:41:11;;;;;;;27.55;13.13;;;2.70;66.80;;;;;;5090625;28;20036;-44
2021/01/31 12:43:37;;;;;;;27.15;14.18;;;2.70;66.60;;;;;;5096041;28;20117;-44
2021/01/31 12:46:04;;;;;;;48.67;25.75;;;2.80;66.80;;;;;;5097798;28;20113;-44
2021/01/31 12:48:29;;;;;;;25.90;15.43;;;2.80;66.60;;;;;;5096326;28;20038;-43
2021/01/31 12:50:55;;;;;;;23.65;13.35;;;2.80;66.80;;;;;;5095800;28;20032;-44
2021/01/31 12:53:21;;;;;;;20.42;12.05;;;2.80;66.80;;;;;;5097065;28;20027;-44
2021/01/31 12:55:47;;;;;;;23.98;11.70;;;2.80;66.80;;;;;;5097172;28;20036;-44
2021/01/31 12:58:12;;;;;;;26.77;15.48;;;2.80;66.70;;;;;;5097051;28;20023;-46
2021/01/31 13:00:38;;;;;;;25.08;13.98;;;2.80;66.90;;;;;;5097263;28;20047;-44
2021/01/31 13:03:04;;;;;;;22.52;12.13;;;2.80;67.20;;;;;;5096919;28;20321;-47
2021/01/31 13:05:31;;;;;;;20.00;11.40;;;2.90;67.60;;;;;;5096615;28;20115;-45
2021/01/31 13:08:01;;;;;;;23.27;12.60;;;2.90;67.70;;;;;;5097418;28;20020;-44
2021/01/31 13:10:28;;;;;;;27.25;13.02;;;3.00;67.30;;;;;;5096643;28;20034;-44